createdAt,value
2018-03-24T00:01:44.863Z,21.43
2018-03-24T00:04:12.501Z,19.23
2018-03-24T00:06:40.121Z,20.53
2018-03-24T00:09:07.853Z,17.87
2018-03-24T00:11:35.477Z,18.63
2018-03-24T00:14:03.097Z,17.10
2018-03-24T00:16:31.684Z,22.23
2018-03-24T00:19:00.069Z,22.73
2018-03-24T00:21:27.684Z,18.90
2018-03-24T00:23:55.313Z,18.23
2018-03-24T00:26:22.937Z,29.00
2018-03-24T00:28:50.564Z,21.43
2018-03-24T00:31:18.192Z,23.13
2018-03-24T00:33:45.817Z,22.30
2018-03-24T00:36:13.525Z,17.63
2018-03-24T00:38:41.921Z,25.53
2018-03-24T00:41:10.317Z,23.47
2018-03-24T00:43:37.932Z,22.57
2018-03-24T00:46:05.568Z,22.90
2018-03-24T00:48:33.196Z,22.50
2018-03-24T00:51:00.829Z,20.70
2018-03-24T00:53:28.441Z,18.77
2018-03-24T00:55:56.833Z,23.43
2018-03-24T00:58:24.472Z,21.07
2018-03-24T01:00:53.885Z,22.43
2018-03-24T01:03:22.274Z,24.03
2018-03-24T01:05:50.665Z,20.07
2018-03-24T01:08:18.294Z,25.93
2018-03-24T01:10:46.680Z,21.77
2018-03-24T01:13:15.065Z,22.57
2018-03-24T01:15:44.201Z,25.03
2018-03-24T01:18:11.824Z,25.13
2018-03-24T01:20:39.457Z,25.13
2018-03-24T01:23:07.077Z,27.87
2018-03-24T01:25:35.474Z,29.27
2018-03-24T01:28:03.860Z,27.87
2018-03-24T01:30:31.789Z,26.87
2018-03-24T01:32:59.417Z,30.10
2018-03-24T01:35:27.039Z,26.97
2018-03-24T01:37:54.660Z,28.27
2018-03-24T01:40:22.285Z,31.40
2018-03-24T01:42:50.689Z,27.70
2018-03-24T01:45:18.305Z,30.07
2018-03-24T01:47:45.924Z,25.17
2018-03-24T01:50:13.547Z,27.00
2018-03-24T01:52:41.173Z,29.50
2018-03-24T01:55:08.789Z,27.90
2018-03-24T01:57:37.173Z,26.97
2018-03-24T02:00:05.565Z,27.50
2018-03-24T02:02:33.973Z,26.90
2018-03-24T02:05:01.604Z,26.73
2018-03-24T02:07:29.997Z,24.00
2018-03-24T02:09:58.376Z,29.80
2018-03-24T02:12:27.765Z,30.20
2018-03-24T02:14:55.791Z,27.73
2018-03-24T02:17:24.145Z,28.67
2018-03-24T02:19:52.547Z,34.40
2018-03-24T02:22:20.160Z,34.07
2018-03-24T02:24:47.787Z,38.27
2018-03-24T02:27:15.733Z,32.80
2018-03-24T02:29:44.121Z,30.83
2018-03-24T02:32:12.511Z,29.03
2018-03-24T02:34:40.133Z,32.10
2018-03-24T02:37:07.758Z,32.47
2018-03-24T02:39:35.385Z,31.73
2018-03-24T02:42:03.000Z,29.20
2018-03-24T02:44:30.636Z,40.93
2018-03-24T02:46:59.021Z,32.90
2018-03-24T02:49:26.642Z,29.60
2018-03-24T02:51:54.573Z,29.97
2018-03-24T02:54:22.194Z,29.50
2018-03-24T02:56:49.817Z,37.57
2018-03-24T02:59:17.445Z,35.57
2018-03-24T03:01:45.830Z,30.20
2018-03-24T03:04:14.233Z,34.67
2018-03-24T03:06:41.852Z,33.00
2018-03-24T03:09:09.485Z,36.53
2018-03-24T03:11:37.104Z,30.83
2018-03-24T03:14:04.733Z,31.87
2018-03-24T03:16:32.856Z,32.63
2018-03-24T03:19:01.232Z,30.40
2018-03-24T03:24:28.373Z,29.13
2018-03-24T03:26:56.309Z,33.23
2018-03-24T03:29:23.928Z,28.97
2018-03-24T03:31:52.312Z,28.67
2018-03-24T03:34:20.701Z,28.67
2018-03-24T03:36:49.097Z,32.40
2018-03-24T03:39:16.725Z,33.07
2018-03-24T03:41:44.348Z,33.13
2018-03-24T03:44:11.969Z,36.33
2018-03-24T03:46:39.584Z,32.17
2018-03-24T03:49:07.218Z,34.10
2018-03-24T03:51:35.600Z,29.53
2018-03-24T03:54:03.991Z,31.70
2018-03-24T03:56:32.868Z,31.43
2018-03-24T03:59:00.484Z,39.17
2018-03-24T04:01:28.100Z,29.33
2018-03-24T04:03:56.497Z,41.67
2018-03-24T04:06:24.885Z,30.87
2018-03-24T04:08:52.521Z,36.20
2018-03-24T04:11:20.147Z,25.53
2018-03-24T04:13:48.151Z,33.27
2018-03-24T04:16:15.769Z,32.67
2018-03-24T04:18:43.400Z,27.10
2018-03-24T04:21:11.025Z,32.60
2018-03-24T04:23:38.640Z,39.43
2018-03-24T04:26:07.040Z,33.97
2018-03-24T04:28:34.673Z,37.70
2018-03-24T04:31:02.293Z,45.40
2018-03-24T04:33:29.916Z,54.50
2018-03-24T04:35:57.940Z,45.70
2018-03-24T04:38:25.581Z,43.93
2018-03-24T04:40:53.961Z,48.53
2018-03-24T04:43:21.590Z,38.87
2018-03-24T04:45:49.220Z,37.30
2018-03-24T04:48:16.846Z,35.43
2018-03-24T04:50:45.246Z,41.87
2018-03-24T04:53:12.865Z,43.77
2018-03-24T04:55:40.497Z,43.80
2018-03-24T04:58:08.117Z,38.57
2018-03-24T05:00:35.745Z,37.83
2018-03-24T05:03:03.374Z,41.70
2018-03-24T05:05:31.005Z,33.83
2018-03-24T05:07:58.616Z,34.93
2018-03-24T05:10:26.253Z,35.07
2018-03-24T05:12:53.874Z,37.77
2018-03-24T05:15:21.499Z,31.77
2018-03-24T05:17:49.121Z,37.57
2018-03-24T05:20:16.748Z,34.33
2018-03-24T05:22:44.380Z,39.73
2018-03-24T05:25:11.992Z,38.80
2018-03-24T05:27:39.625Z,29.73
2018-03-24T05:30:08.422Z,36.53
2018-03-24T05:32:36.809Z,42.20
2018-03-24T05:35:04.433Z,36.20
2018-03-24T05:37:32.056Z,34.93
2018-03-24T05:39:59.692Z,34.60
2018-03-24T05:42:28.097Z,37.07
2018-03-24T05:44:55.721Z,35.57
2018-03-24T05:47:23.350Z,39.03
2018-03-24T05:49:50.969Z,33.47
2018-03-24T05:52:19.368Z,34.93
2018-03-24T05:54:47.000Z,35.63
2018-03-24T05:57:14.630Z,40.03
2018-03-24T05:59:42.250Z,35.10
2018-03-24T06:02:16.454Z,37.65
2018-03-24T06:04:44.093Z,32.20
2018-03-24T06:07:11.713Z,34.30
2018-03-24T06:09:40.101Z,31.43
2018-03-24T06:12:07.726Z,29.20
2018-03-24T06:14:35.344Z,33.77
2018-03-24T06:17:02.970Z,34.17
2018-03-24T06:19:30.600Z,32.47
2018-03-24T06:21:58.222Z,30.33
2018-03-24T06:24:26.612Z,33.67
2018-03-24T06:26:54.232Z,37.23
2018-03-24T06:29:21.873Z,33.43
2018-03-24T06:31:49.490Z,28.00
2018-03-24T06:34:17.118Z,32.60
2018-03-24T06:36:44.741Z,29.40
2018-03-24T06:39:12.360Z,33.03
2018-03-24T06:41:39.985Z,32.70
2018-03-24T06:44:07.617Z,31.23
2018-03-24T06:46:35.320Z,30.07
2018-03-24T06:49:02.936Z,30.00
2018-03-24T06:51:30.572Z,30.80
2018-03-24T06:53:58.198Z,31.20
2018-03-24T06:56:27.575Z,31.00
2018-03-24T06:58:55.209Z,25.93
2018-03-24T07:01:22.829Z,26.80
2018-03-24T07:03:51.229Z,29.00
2018-03-24T07:06:18.863Z,28.33
2018-03-24T07:08:46.473Z,28.83
2018-03-24T07:11:14.101Z,31.90
2018-03-24T07:13:41.725Z,30.47
2018-03-24T07:16:09.354Z,32.17
2018-03-24T07:18:37.015Z,32.20
2018-03-24T07:21:05.401Z,25.53
2018-03-24T07:23:33.789Z,34.57
2018-03-24T07:26:01.412Z,29.23
2018-03-24T07:28:29.037Z,33.47
2018-03-24T07:30:56.970Z,29.73
2018-03-24T07:33:24.597Z,31.30
2018-03-24T07:35:52.225Z,28.53
2018-03-24T07:38:19.853Z,28.60
2018-03-24T07:40:47.478Z,27.50
2018-03-24T07:43:15.109Z,30.83
2018-03-24T07:45:43.499Z,31.67
2018-03-24T07:48:11.892Z,24.27
2018-03-24T07:50:39.521Z,26.10
2018-03-24T07:53:07.141Z,25.90
2018-03-24T07:55:34.776Z,25.60
2018-03-24T07:58:03.178Z,30.70
2018-03-24T08:00:31.122Z,25.30
2018-03-24T08:02:58.740Z,25.03
2018-03-24T08:05:26.428Z,24.87
2018-03-24T08:07:54.053Z,27.13
2018-03-24T08:10:21.673Z,29.43
2018-03-24T08:12:49.297Z,32.07
2018-03-24T08:15:16.924Z,28.53
2018-03-24T08:17:44.541Z,24.00
2018-03-24T08:20:12.290Z,27.87
2018-03-24T08:22:40.657Z,26.37
2018-03-24T08:25:08.302Z,26.00
2018-03-24T08:27:35.926Z,26.73
2018-03-24T08:30:03.554Z,26.63
2018-03-24T08:32:31.184Z,26.70
2018-03-24T08:34:58.813Z,28.23
2018-03-24T08:37:26.756Z,26.20
2018-03-24T08:39:54.380Z,24.87
2018-03-24T08:42:22.013Z,26.70
2018-03-24T08:44:49.632Z,24.87
2018-03-24T08:47:17.248Z,27.60
2018-03-24T08:49:45.298Z,28.17
2018-03-24T08:52:12.921Z,24.47
2018-03-24T08:54:40.542Z,26.27
2018-03-24T08:57:08.174Z,26.30
2018-03-24T08:59:35.801Z,23.30
2018-03-24T09:02:03.428Z,24.07
2018-03-24T09:04:31.809Z,23.40
2018-03-24T09:06:59.433Z,22.23
2018-03-24T09:09:27.546Z,23.20
2018-03-24T09:11:55.940Z,23.73
2018-03-24T09:14:23.557Z,23.10
2018-03-24T09:16:51.192Z,20.40
2018-03-24T09:19:18.818Z,24.03
2018-03-24T09:21:47.223Z,17.60
2018-03-24T09:24:14.853Z,20.47
2018-03-24T09:26:43.988Z,21.00
2018-03-24T09:29:11.609Z,17.50
2018-03-24T09:31:39.232Z,20.00
2018-03-24T09:34:06.874Z,19.27
2018-03-24T09:36:35.269Z,20.40
2018-03-24T09:39:02.901Z,21.40
2018-03-24T09:41:30.524Z,19.10
2018-03-24T09:43:58.161Z,19.07
2018-03-24T09:46:26.117Z,19.57
2018-03-24T09:48:54.509Z,16.60
2018-03-24T09:51:22.906Z,19.57
2018-03-24T09:53:50.536Z,18.10
2018-03-24T09:56:18.161Z,18.13
2018-03-24T09:58:45.788Z,20.73
2018-03-24T10:01:20.908Z,20.70
2018-03-24T10:03:48.533Z,20.73
2018-03-24T10:06:16.162Z,20.60
2018-03-24T10:08:43.797Z,17.90
2018-03-24T10:11:11.433Z,19.43
2018-03-24T10:13:39.059Z,19.20
2018-03-24T10:16:07.452Z,15.37
2018-03-24T10:18:35.076Z,16.37
2018-03-24T10:24:17.400Z,12.77
2018-03-24T10:26:45.806Z,12.03
2018-03-24T10:29:13.429Z,12.27
2018-03-24T10:31:41.050Z,14.37
2018-03-24T10:34:08.680Z,14.10
2018-03-24T10:36:37.078Z,12.57
2018-03-24T10:39:04.702Z,13.63
2018-03-24T10:41:32.337Z,15.63
2018-03-24T10:44:00.053Z,14.70
2018-03-24T10:46:27.674Z,10.57
2018-03-24T10:48:55.298Z,14.37
2018-03-24T10:51:23.706Z,12.83
2018-03-24T10:53:52.377Z,13.40
2018-03-24T10:56:20.773Z,13.47
2018-03-24T10:58:48.405Z,14.20
2018-03-24T11:01:16.401Z,12.27
2018-03-24T11:03:44.790Z,9.90
2018-03-24T11:06:13.172Z,9.87
2018-03-24T11:08:41.562Z,9.53
2018-03-24T11:11:09.956Z,10.60
2018-03-24T11:13:37.590Z,9.97
2018-03-24T11:16:05.192Z,8.83
2018-03-24T11:18:32.816Z,9.13
2018-03-24T11:21:00.438Z,10.80
2018-03-24T11:23:28.065Z,10.17
2018-03-24T11:25:56.464Z,9.57
2018-03-24T11:28:24.071Z,9.27
2018-03-24T11:30:51.697Z,10.37
2018-03-24T11:33:29.673Z,9.00
2018-03-24T11:35:57.296Z,9.37
2018-03-24T11:38:24.920Z,9.57
2018-03-24T11:40:53.303Z,9.60
2018-03-24T11:43:20.925Z,9.67
2018-03-24T11:45:48.536Z,11.63
2018-03-24T11:48:16.187Z,10.30
2018-03-24T11:50:43.792Z,9.87
2018-03-24T11:53:11.413Z,10.93
2018-03-24T11:55:39.041Z,9.90
2018-03-24T11:58:06.659Z,13.13
2018-03-24T12:00:35.049Z,9.00
2018-03-24T12:03:02.673Z,10.73
2018-03-24T12:05:30.293Z,8.93
2018-03-24T12:07:57.921Z,8.50
2018-03-24T12:10:25.540Z,9.63
2018-03-24T12:12:53.166Z,12.17
2018-03-24T12:15:21.560Z,10.33
2018-03-24T12:17:49.189Z,10.17
2018-03-24T12:20:18.320Z,8.90
2018-03-24T12:22:46.708Z,8.97
2018-03-24T12:25:14.328Z,10.60
2018-03-24T12:27:42.246Z,10.03
2018-03-24T12:30:10.637Z,10.10
2018-03-24T12:32:38.257Z,9.63
2018-03-24T12:35:05.896Z,7.83
2018-03-24T12:37:33.521Z,6.87
2018-03-24T12:40:01.912Z,8.00
2018-03-24T12:42:30.296Z,8.03
2018-03-24T12:44:57.912Z,8.17
2018-03-24T12:47:25.533Z,7.67
2018-03-24T12:49:53.153Z,8.63
2018-03-24T12:52:20.776Z,9.00
2018-03-24T12:54:48.475Z,6.93
2018-03-24T12:57:16.068Z,8.63
2018-03-24T12:59:43.694Z,8.00
2018-03-24T13:02:11.327Z,9.87
2018-03-24T13:04:38.941Z,8.47
2018-03-24T13:07:06.561Z,9.83
2018-03-24T13:09:34.185Z,9.87
2018-03-24T13:12:01.826Z,9.33
2018-03-24T13:14:29.449Z,9.60
2018-03-24T13:16:57.837Z,11.17
2018-03-24T13:19:25.465Z,8.63
2018-03-24T13:21:53.076Z,7.93
2018-03-24T13:24:20.721Z,7.70
2018-03-24T13:26:49.110Z,8.70
2018-03-24T13:29:17.480Z,9.23
2018-03-24T13:31:45.874Z,8.37
2018-03-24T13:34:13.485Z,8.27
2018-03-24T13:36:41.605Z,8.77
2018-03-24T13:39:09.231Z,11.93
2018-03-24T13:41:36.850Z,8.83
2018-03-24T13:44:05.237Z,11.60
2018-03-24T13:46:32.866Z,9.77
2018-03-24T13:49:00.578Z,10.67
2018-03-24T13:51:28.818Z,9.37
2018-03-24T13:53:56.441Z,10.77
2018-03-24T13:56:43.609Z,10.57
2018-03-24T13:59:11.237Z,12.70
2018-03-24T14:01:38.855Z,9.43
2018-03-24T14:04:07.253Z,11.10
2018-03-24T14:06:36.053Z,14.60
2018-03-24T14:09:03.669Z,10.30
2018-03-24T14:11:31.297Z,11.10
2018-03-24T14:14:11.040Z,9.63
2018-03-24T14:16:38.672Z,9.47
2018-03-24T14:19:07.065Z,15.00
2018-03-24T14:21:34.697Z,15.67
2018-03-24T14:24:02.329Z,12.17
2018-03-24T14:26:29.957Z,10.53
2018-03-24T14:28:58.345Z,11.00
2018-03-24T14:31:25.993Z,9.53
2018-03-24T14:33:53.592Z,14.80
2018-03-24T14:36:24.477Z,11.33
2018-03-24T14:38:52.098Z,11.67
2018-03-24T14:41:19.722Z,9.60
2018-03-24T14:43:47.340Z,10.67
2018-03-24T14:46:15.185Z,11.30
2018-03-24T14:48:44.767Z,11.83
2018-03-24T14:51:12.385Z,11.30
2018-03-24T14:53:45.625Z,11.30
2018-03-24T14:56:14.017Z,11.93
2018-03-24T14:58:54.473Z,12.67
2018-03-24T15:01:22.110Z,11.30
2018-03-24T15:04:04.064Z,11.23
2018-03-24T15:06:32.602Z,10.67
2018-03-24T15:09:07.625Z,10.50
2018-03-24T15:11:35.254Z,9.27
2018-03-24T15:14:02.878Z,8.87
2018-03-24T15:19:19.285Z,11.07
2018-03-24T15:21:46.921Z,13.90
2018-03-24T15:24:14.549Z,10.47
2018-03-24T15:26:42.172Z,10.53
2018-03-24T15:29:21.773Z,9.00
2018-03-24T15:32:01.176Z,9.43
2018-03-24T15:34:41.420Z,9.80
2018-03-24T15:37:09.040Z,9.53
2018-03-24T15:39:36.672Z,9.63
2018-03-24T15:42:05.064Z,9.57
2018-03-24T15:44:34.637Z,10.67
2018-03-24T15:47:02.262Z,10.27
2018-03-24T15:49:29.888Z,12.47
2018-03-24T15:51:58.272Z,9.57
2018-03-24T15:54:26.673Z,10.13
2018-03-24T15:56:55.056Z,13.47
2018-03-24T15:59:22.677Z,10.60
2018-03-24T16:02:00.694Z,12.70
2018-03-24T16:04:28.289Z,11.77
2018-03-24T16:06:55.909Z,10.60
2018-03-24T16:09:23.533Z,12.30
2018-03-24T16:14:25.098Z,11.33
2018-03-24T16:16:52.735Z,12.50
2018-03-24T16:19:21.129Z,10.07
2018-03-24T16:21:48.761Z,10.77
2018-03-24T16:24:16.381Z,13.10
2018-03-24T16:26:44.002Z,12.00
2018-03-24T16:29:11.673Z,10.33
2018-03-24T16:31:39.284Z,11.93
2018-03-24T16:34:06.916Z,10.77
2018-03-24T16:36:34.536Z,12.60
2018-03-24T16:39:02.157Z,10.73
2018-03-24T16:41:30.549Z,9.97
2018-03-24T16:43:58.936Z,9.67
2018-03-24T16:46:26.553Z,9.57
2018-03-24T16:48:54.176Z,12.60
2018-03-24T16:51:21.796Z,12.30
2018-03-24T16:53:49.420Z,9.97
2018-03-24T16:56:17.040Z,12.00
2018-03-24T16:58:44.731Z,13.47
2018-03-24T17:01:12.355Z,10.90
2018-03-24T17:03:39.976Z,10.33
2018-03-24T17:06:07.609Z,10.30
2018-03-24T17:08:35.248Z,11.07
2018-03-24T17:13:51.776Z,11.10
2018-03-24T17:16:19.400Z,11.47
2018-03-24T17:18:47.064Z,15.43
2018-03-24T17:21:20.818Z,13.30
2018-03-24T17:23:54.300Z,13.23
2018-03-24T17:26:23.930Z,14.07
2018-03-24T17:28:51.566Z,16.03
2018-03-24T17:31:25.265Z,15.27
2018-03-24T17:33:52.894Z,15.93
2018-03-24T17:36:21.288Z,15.17
2018-03-24T17:38:52.809Z,16.90
2018-03-24T17:41:20.438Z,14.27
2018-03-24T17:43:48.069Z,15.37
2018-03-24T17:46:15.701Z,14.50
2018-03-24T17:48:45.293Z,17.53
2018-03-24T17:51:13.167Z,16.83
2018-03-24T17:53:40.784Z,20.50
2018-03-24T17:56:08.425Z,16.47
2018-03-24T17:58:36.042Z,16.37
2018-03-24T18:01:03.657Z,18.83
2018-03-24T18:03:32.040Z,18.80
2018-03-24T18:05:59.670Z,19.50
2018-03-24T18:08:27.292Z,19.53
2018-03-24T18:10:54.925Z,19.87
2018-03-24T18:13:22.542Z,21.17
2018-03-24T18:15:50.173Z,18.40
2018-03-24T18:18:35.241Z,17.70
2018-03-24T18:21:03.627Z,19.80
2018-03-24T18:26:18.501Z,20.63
2018-03-24T18:28:46.888Z,23.63
2018-03-24T18:31:15.276Z,23.87
2018-03-24T18:33:43.669Z,22.67
2018-03-24T18:36:12.057Z,25.80
2018-03-24T18:38:39.685Z,22.47
2018-03-24T18:41:07.320Z,31.67
2018-03-24T18:43:35.017Z,31.80
2018-03-24T18:46:02.643Z,30.43
2018-03-24T18:48:30.369Z,26.67
2018-03-24T18:50:58.764Z,28.07
2018-03-24T18:53:27.169Z,28.10
2018-03-24T18:55:54.801Z,28.87
2018-03-24T18:58:23.201Z,25.60
2018-03-24T19:00:50.830Z,28.87
2018-03-24T19:03:18.448Z,30.70
2018-03-24T19:05:46.073Z,32.73
2018-03-24T19:08:14.515Z,25.73
2018-03-24T19:10:42.856Z,26.00
2018-03-24T19:13:11.245Z,23.97
2018-03-24T19:15:39.632Z,21.80
2018-03-24T19:18:07.266Z,22.80
2018-03-24T19:20:34.886Z,24.07
2018-03-24T19:23:02.512Z,25.83
2018-03-24T19:25:30.144Z,24.57
2018-03-24T19:27:57.772Z,28.47
2018-03-24T19:30:25.393Z,24.40
2018-03-24T19:32:53.020Z,26.43
2018-03-24T19:35:20.659Z,27.53
2018-03-24T19:37:48.275Z,25.13
2018-03-24T19:40:15.892Z,24.13
2018-03-24T19:42:43.528Z,26.83
2018-03-24T19:45:11.912Z,28.17
2018-03-24T19:47:39.541Z,28.33
2018-03-24T19:50:18.048Z,29.90
2018-03-24T19:52:45.673Z,30.87
2018-03-24T19:55:14.064Z,26.10
2018-03-24T19:57:41.702Z,27.70
2018-03-24T20:00:09.314Z,28.60
2018-03-24T20:02:36.945Z,31.52
2018-03-24T20:05:04.569Z,28.43
2018-03-24T20:07:32.196Z,32.03
2018-03-24T20:09:59.817Z,29.33
2018-03-24T20:12:27.445Z,33.10
2018-03-24T20:14:55.072Z,29.90
2018-03-24T20:17:22.906Z,32.93
2018-03-24T20:19:50.621Z,29.40
2018-03-24T20:22:19.010Z,28.27
2018-03-24T20:24:47.406Z,27.07
2018-03-24T20:27:15.034Z,26.50
2018-03-24T20:29:42.648Z,28.07
2018-03-24T20:32:10.271Z,28.63
2018-03-24T20:34:37.906Z,31.20
2018-03-24T20:37:05.528Z,27.97
2018-03-24T20:39:33.929Z,29.00
2018-03-24T20:42:01.545Z,24.47
2018-03-24T20:44:29.164Z,29.50
2018-03-24T20:46:56.788Z,29.47
2018-03-24T20:49:25.185Z,25.97
2018-03-24T20:51:53.561Z,31.43
2018-03-24T20:54:21.949Z,25.60
2018-03-24T20:56:50.332Z,30.97
2018-03-24T20:59:18.725Z,28.67
2018-03-24T21:01:46.348Z,31.87
2018-03-24T21:04:13.978Z,29.23
2018-03-24T21:06:41.596Z,37.30
2018-03-24T21:09:09.224Z,32.50
2018-03-24T21:11:36.852Z,32.53
2018-03-24T21:14:05.245Z,32.47
2018-03-24T21:16:32.872Z,34.23
2018-03-24T21:19:02.000Z,34.33
2018-03-24T21:21:29.620Z,33.83
2018-03-24T21:23:57.249Z,35.47
2018-03-24T21:26:24.877Z,33.47
2018-03-24T21:29:08.417Z,37.33
2018-03-24T21:31:36.852Z,39.07
2018-03-24T21:34:04.550Z,34.17
2018-03-24T21:36:32.836Z,38.40
2018-03-24T21:39:06.740Z,31.80
2018-03-24T21:41:35.814Z,28.23
2018-03-24T21:44:05.530Z,32.63
2018-03-24T21:46:34.705Z,31.43
2018-03-24T21:49:03.442Z,29.37
2018-03-24T21:51:32.216Z,32.77
2018-03-24T21:54:04.061Z,27.23
2018-03-24T21:56:34.050Z,28.17
2018-03-24T21:59:05.504Z,31.00
2018-03-24T22:01:35.951Z,26.63
2018-03-24T22:04:04.431Z,29.53
2018-03-24T22:06:33.988Z,28.00
2018-03-24T22:09:03.630Z,34.10
2018-03-24T22:11:32.557Z,30.67
2018-03-24T22:14:01.500Z,30.10
2018-03-24T22:16:29.440Z,33.03
2018-03-24T22:18:57.044Z,41.27
2018-03-24T22:21:24.665Z,29.40
2018-03-24T22:23:52.289Z,34.90
2018-03-24T22:26:20.687Z,31.60
2018-03-24T22:28:48.310Z,29.27
2018-03-24T22:31:15.942Z,31.17
2018-03-24T22:33:43.568Z,39.10
2018-03-24T22:36:11.969Z,39.20
2018-03-24T22:38:39.596Z,35.10
2018-03-24T22:41:07.212Z,32.77
2018-03-24T22:43:34.880Z,36.23
2018-03-24T22:46:02.464Z,42.77
2018-03-24T22:48:30.085Z,37.23
2018-03-24T22:50:58.489Z,42.97
2018-03-24T22:53:26.120Z,36.57
2018-03-24T22:55:53.750Z,34.63
2018-03-24T22:58:21.365Z,36.57
2018-03-24T23:00:54.786Z,28.60
2018-03-24T23:03:23.156Z,32.00
2018-03-24T23:05:50.782Z,31.20
2018-03-24T23:08:18.408Z,33.13
2018-03-24T23:10:46.025Z,31.90
2018-03-24T23:13:15.160Z,30.63
2018-03-24T23:15:42.797Z,31.80
2018-03-24T23:18:10.420Z,33.90
2018-03-24T23:20:38.051Z,28.63
2018-03-24T23:23:06.439Z,33.27
2018-03-24T23:25:34.066Z,32.20
2018-03-24T23:28:01.854Z,33.97
2018-03-24T23:30:29.466Z,35.37
2018-03-24T23:32:57.093Z,32.60
2018-03-24T23:35:25.484Z,30.33
2018-03-24T23:37:53.872Z,31.93
2018-03-24T23:40:21.488Z,33.37
2018-03-24T23:42:49.185Z,34.57
2018-03-24T23:45:17.580Z,32.83
2018-03-24T23:47:45.975Z,36.50
2018-03-24T23:50:13.593Z,32.80
2018-03-24T23:52:41.214Z,32.33
2018-03-24T23:55:08.841Z,34.57
2018-03-24T23:57:36.464Z,36.00
